sensor_id;sensor_type;location;lat;lon;timestamp;pressure;altitude;pressure_sealevel;temperature;humidity
66164;BME280;52962;51.088;3.096;2024-02-26T00:00:37;99149.84;;;26.74;32.19
66164;BME280;52962;51.088;3.096;2024-02-26T00:03:07;99153.97;;;26.66;31.98
66164;BME280;52962;51.088;3.096;2024-02-26T00:05:35;99153.78;;;26.44;32.78
66164;BME280;52962;51.088;3.096;2024-02-26T00:08:05;99150.53;;;26.26;32.62
66164;BME280;52962;51.088;3.096;2024-02-26T00:10:33;99150.19;;;26.18;32.85
66164;BME280;52962;51.088;3.096;2024-02-26T00:13:01;99140.28;;;26.06;32.79
66164;BME280;52962;51.088;3.096;2024-02-26T00:15:30;99152.34;;;26.13;32.85
66164;BME280;52962;51.088;3.096;2024-02-26T00:17:58;99145.44;;;26.09;33.14
66164;BME280;52962;51.088;3.096;2024-02-26T00:20:27;99139.94;;;26.11;33.09
66164;BME280;52962;51.088;3.096;2024-02-26T00:22:56;99137.47;;;26.20;33.06
66164;BME280;52962;51.088;3.096;2024-02-26T00:25:24;99132.50;;;26.27;32.78
66164;BME280;52962;51.088;3.096;2024-02-26T00:27:52;99138.97;;;26.12;33.02
66164;BME280;52962;51.088;3.096;2024-02-26T00:30:20;99136.16;;;26.00;33.29
66164;BME280;52962;51.088;3.096;2024-02-26T00:32:49;99137.59;;;25.41;34.23
66164;BME280;52962;51.088;3.096;2024-02-26T00:35:17;99131.94;;;25.31;34.64
66164;BME280;52962;51.088;3.096;2024-02-26T00:37:48;99128.78;;;25.52;33.63
66164;BME280;52962;51.088;3.096;2024-02-26T00:40:17;99130.94;;;25.59;33.81
66164;BME280;52962;51.088;3.096;2024-02-26T00:42:45;99129.75;;;25.51;33.65
66164;BME280;52962;51.088;3.096;2024-02-26T00:45:14;99129.28;;;25.71;33.58
66164;BME280;52962;51.088;3.096;2024-02-26T00:47:43;99126.72;;;25.95;33.11
66164;BME280;52962;51.088;3.096;2024-02-26T00:50:14;99130.03;;;25.73;33.57
66164;BME280;52962;51.088;3.096;2024-02-26T00:52:43;99136.75;;;25.93;33.58
66164;BME280;52962;51.088;3.096;2024-02-26T00:55:12;99142.31;;;26.02;33.30
66164;BME280;52962;51.088;3.096;2024-02-26T00:57:40;99140.38;;;26.30;32.96
66164;BME280;52962;51.088;3.096;2024-02-26T01:00:09;99137.38;;;26.47;32.72
66164;BME280;52962;51.088;3.096;2024-02-26T01:02:38;99142.88;;;26.33;32.81
66164;BME280;52962;51.088;3.096;2024-02-26T01:05:08;99147.50;;;26.31;33.03
66164;BME280;52962;51.088;3.096;2024-02-26T01:07:36;99146.75;;;26.29;32.63
66164;BME280;52962;51.088;3.096;2024-02-26T01:10:06;99142.88;;;26.20;32.75
66164;BME280;52962;51.088;3.096;2024-02-26T01:12:36;99149.13;;;26.21;32.86
66164;BME280;52962;51.088;3.096;2024-02-26T01:15:05;99143.94;;;26.18;33.13
66164;BME280;52962;51.088;3.096;2024-02-26T01:17:34;99143.94;;;26.18;33.19
66164;BME280;52962;51.088;3.096;2024-02-26T01:20:02;99156.56;;;26.17;32.96
66164;BME280;52962;51.088;3.096;2024-02-26T01:22:30;99149.44;;;26.16;33.11
66164;BME280;52962;51.088;3.096;2024-02-26T01:24:58;99156.47;;;26.19;33.18
66164;BME280;52962;51.088;3.096;2024-02-26T01:27:26;99159.25;;;26.04;32.95
66164;BME280;52962;51.088;3.096;2024-02-26T01:29:57;99157.75;;;26.00;33.17
66164;BME280;52962;51.088;3.096;2024-02-26T01:32:26;99156.78;;;26.01;33.40
66164;BME280;52962;51.088;3.096;2024-02-26T01:34:54;99158.16;;;25.69;33.56
66164;BME280;52962;51.088;3.096;2024-02-26T01:37:22;99157.31;;;25.68;33.59
66164;BME280;52962;51.088;3.096;2024-02-26T01:39:50;99155.81;;;25.77;33.44
66164;BME280;52962;51.088;3.096;2024-02-26T01:42:18;99161.97;;;25.79;33.65
66164;BME280;52962;51.088;3.096;2024-02-26T01:44:46;99163.56;;;25.69;33.61
66164;BME280;52962;51.088;3.096;2024-02-26T01:47:16;99167.69;;;25.87;33.50
66164;BME280;52962;51.088;3.096;2024-02-26T01:49:44;99172.19;;;25.74;33.62
66164;BME280;52962;51.088;3.096;2024-02-26T01:52:12;99170.47;;;25.73;33.73
66164;BME280;52962;51.088;3.096;2024-02-26T01:54:41;99168.41;;;25.37;34.16
66164;BME280;52962;51.088;3.096;2024-02-26T01:57:11;99165.41;;;26.06;33.53
66164;BME280;52962;51.088;3.096;2024-02-26T01:59:40;99177.72;;;25.85;33.60
66164;BME280;52962;51.088;3.096;2024-02-26T02:02:10;99180.53;;;25.57;33.82
66164;BME280;52962;51.088;3.096;2024-02-26T02:04:40;99178.03;;;25.54;34.07
66164;BME280;52962;51.088;3.096;2024-02-26T02:07:09;99175.13;;;25.57;33.78
66164;BME280;52962;51.088;3.096;2024-02-26T02:09:37;99183.88;;;26.00;33.40
66164;BME280;52962;51.088;3.096;2024-02-26T02:12:06;99189.47;;;25.84;33.31
66164;BME280;52962;51.088;3.096;2024-02-26T02:14:35;99188.59;;;25.71;33.62
66164;BME280;52962;51.088;3.096;2024-02-26T02:17:03;99192.34;;;25.68;33.72
66164;BME280;52962;51.088;3.096;2024-02-26T02:19:32;99194.19;;;25.68;33.88
66164;BME280;52962;51.088;3.096;2024-02-26T02:22:01;99203.94;;;25.29;34.08
66164;BME280;52962;51.088;3.096;2024-02-26T02:24:29;99200.56;;;25.53;34.08
66164;BME280;52962;51.088;3.096;2024-02-26T02:26:57;99205.97;;;25.53;34.00
66164;BME280;52962;51.088;3.096;2024-02-26T02:29:26;99208.75;;;25.51;34.19
66164;BME280;52962;51.088;3.096;2024-02-26T02:31:55;99209.22;;;25.58;34.11
66164;BME280;52962;51.088;3.096;2024-02-26T02:34:24;99204.75;;;25.71;33.98
66164;BME280;52962;51.088;3.096;2024-02-26T02:36:53;99208.63;;;25.67;33.86
66164;BME280;52962;51.088;3.096;2024-02-26T02:39:22;99197.63;;;25.70;34.07
66164;BME280;52962;51.088;3.096;2024-02-26T02:41:51;99210.03;;;25.72;34.02
66164;BME280;52962;51.088;3.096;2024-02-26T02:44:19;99211.44;;;25.65;34.07
66164;BME280;52962;51.088;3.096;2024-02-26T02:46:47;99207.06;;;25.63;34.11
66164;BME280;52962;51.088;3.096;2024-02-26T02:49:17;99208.72;;;25.38;34.43
66164;BME280;52962;51.088;3.096;2024-02-26T02:51:45;99202.41;;;25.25;34.47
66164;BME280;52962;51.088;3.096;2024-02-26T02:54:13;99207.09;;;25.36;34.58
66164;BME280;52962;51.088;3.096;2024-02-26T02:56:43;99210.84;;;25.33;34.54
66164;BME280;52962;51.088;3.096;2024-02-26T02:59:12;99211.59;;;25.35;34.53
66164;BME280;52962;51.088;3.096;2024-02-26T03:01:40;99208.72;;;25.38;34.52
66164;BME280;52962;51.088;3.096;2024-02-26T03:04:08;99217.03;;;25.21;34.75
66164;BME280;52962;51.088;3.096;2024-02-26T03:06:36;99220.69;;;25.20;34.77
66164;BME280;52962;51.088;3.096;2024-02-26T03:09:05;99217.47;;;25.69;34.13
66164;BME280;52962;51.088;3.096;2024-02-26T03:11:34;99210.16;;;25.71;34.20
66164;BME280;52962;51.088;3.096;2024-02-26T03:14:03;99218.03;;;25.74;34.19
66164;BME280;52962;51.088;3.096;2024-02-26T03:16:33;99214.69;;;25.70;33.80
66164;BME280;52962;51.088;3.096;2024-02-26T03:19:01;99224.59;;;25.70;34.00
66164;BME280;52962;51.088;3.096;2024-02-26T03:21:31;99227.66;;;25.64;34.05
66164;BME280;52962;51.088;3.096;2024-02-26T03:23:59;99238.75;;;25.59;34.22
66164;BME280;52962;51.088;3.096;2024-02-26T03:26:27;99238.19;;;25.54;34.16
66164;BME280;52962;51.088;3.096;2024-02-26T03:28:55;99244.69;;;25.37;34.57
66164;BME280;52962;51.088;3.096;2024-02-26T03:31:25;99242.69;;;25.95;33.54
66164;BME280;52962;51.088;3.096;2024-02-26T03:33:53;99245.75;;;24.80;34.96
66164;BME280;52962;51.088;3.096;2024-02-26T03:36:21;99246.13;;;24.59;35.38
66164;BME280;52962;51.088;3.096;2024-02-26T03:38:49;99268.56;;;19.14;46.04
66164;BME280;52962;51.088;3.096;2024-02-26T03:41:17;99273.84;;;17.95;54.75
66164;BME280;52962;51.088;3.096;2024-02-26T03:43:45;99275.78;;;19.12;56.58
66164;BME280;52962;51.088;3.096;2024-02-26T03:46:14;99279.22;;;17.94;63.58
66164;BME280;52962;51.088;3.096;2024-02-26T03:48:43;99282.16;;;17.86;68.96
66164;BME280;52962;51.088;3.096;2024-02-26T03:51:12;99281.75;;;17.72;73.13
66164;BME280;52962;51.088;3.096;2024-02-26T03:53:40;99291.53;;;17.72;76.31
66164;BME280;52962;51.088;3.096;2024-02-26T03:56:08;99295.72;;;17.79;78.41
66164;BME280;52962;51.088;3.096;2024-02-26T03:58:38;99303.97;;;17.71;80.39
66164;BME280;52962;51.088;3.096;2024-02-26T04:01:07;99296.91;;;17.70;81.52
66164;BME280;52962;51.088;3.096;2024-02-26T04:03:35;99303.56;;;18.35;78.52
66164;BME280;52962;51.088;3.096;2024-02-26T04:06:08;99312.84;;;19.41;69.29
66164;BME280;52962;51.088;3.096;2024-02-26T04:08:37;99306.53;;;19.44;67.47
66164;BME280;52962;51.088;3.096;2024-02-26T04:11:06;99320.16;;;19.59;65.63
66164;BME280;52962;51.088;3.096;2024-02-26T04:13:34;99313.34;;;19.52;64.82
66164;BME280;52962;51.088;3.096;2024-02-26T04:16:05;99314.53;;;19.44;66.38
66164;BME280;52962;51.088;3.096;2024-02-26T04:18:34;99328.19;;;19.36;65.81
66164;BME280;52962;51.088;3.096;2024-02-26T04:21:03;99334.00;;;19.24;66.50
66164;BME280;52962;51.088;3.096;2024-02-26T04:23:36;99329.69;;;19.43;65.39
66164;BME280;52962;51.088;3.096;2024-02-26T04:26:04;99340.72;;;19.34;65.77
66164;BME280;52962;51.088;3.096;2024-02-26T04:28:33;99336.81;;;19.43;65.11
66164;BME280;52962;51.088;3.096;2024-02-26T04:31:00;99330.03;;;19.57;64.16
66164;BME280;52962;51.088;3.096;2024-02-26T04:33:29;99340.22;;;19.01;65.70
66164;BME280;52962;51.088;3.096;2024-02-26T04:35:57;99329.03;;;20.02;61.76
66164;BME280;52962;51.088;3.096;2024-02-26T04:38:25;99349.81;;;19.96;60.09
66164;BME280;52962;51.088;3.096;2024-02-26T04:40:54;99347.19;;;19.94;61.60
66164;BME280;52962;51.088;3.096;2024-02-26T04:43:22;99344.13;;;20.03;59.98
66164;BME280;52962;51.088;3.096;2024-02-26T04:45:50;99346.22;;;19.53;61.77
66164;BME280;52962;51.088;3.096;2024-02-26T04:48:19;99360.38;;;19.32;64.46
66164;BME280;52962;51.088;3.096;2024-02-26T04:50:47;99358.81;;;19.49;63.29
66164;BME280;52962;51.088;3.096;2024-02-26T04:53:15;99359.97;;;19.42;63.80
66164;BME280;52962;51.088;3.096;2024-02-26T04:55:43;99364.16;;;19.49;62.10
66164;BME280;52962;51.088;3.096;2024-02-26T04:58:13;99358.19;;;19.43;63.57
66164;BME280;52962;51.088;3.096;2024-02-26T05:00:41;99360.91;;;19.18;65.11
66164;BME280;52962;51.088;3.096;2024-02-26T05:03:09;99359.19;;;19.17;64.78
66164;BME280;52962;51.088;3.096;2024-02-26T05:05:40;99367.69;;;19.03;66.04
66164;BME280;52962;51.088;3.096;2024-02-26T05:08:08;99362.53;;;19.22;65.96
66164;BME280;52962;51.088;3.096;2024-02-26T05:10:36;99366.84;;;19.03;66.85
66164;BME280;52962;51.088;3.096;2024-02-26T05:13:08;99369.69;;;18.98;66.75
66164;BME280;52962;51.088;3.096;2024-02-26T05:15:37;99376.09;;;18.92;67.11
66164;BME280;52962;51.088;3.096;2024-02-26T05:18:05;99382.91;;;19.01;66.56
66164;BME280;52962;51.088;3.096;2024-02-26T05:20:34;99380.16;;;18.79;67.48
66164;BME280;52962;51.088;3.096;2024-02-26T05:23:04;99382.25;;;18.71;67.95
66164;BME280;52962;51.088;3.096;2024-02-26T05:25:32;99388.69;;;18.66;68.52
66164;BME280;52962;51.088;3.096;2024-02-26T05:28:01;99393.56;;;19.01;66.44
66164;BME280;52962;51.088;3.096;2024-02-26T05:30:29;99391.84;;;18.75;67.14
66164;BME280;52962;51.088;3.096;2024-02-26T05:32:58;99387.25;;;19.04;66.58
66164;BME280;52962;51.088;3.096;2024-02-26T05:35:26;99399.50;;;18.35;71.01
66164;BME280;52962;51.088;3.096;2024-02-26T05:37:54;99399.38;;;18.38;70.84
66164;BME280;52962;51.088;3.096;2024-02-26T05:40:22;99402.22;;;18.07;72.63
66164;BME280;52962;51.088;3.096;2024-02-26T05:42:52;99412.03;;;18.05;73.59
66164;BME280;52962;51.088;3.096;2024-02-26T05:45:20;99404.63;;;18.14;73.48
66164;BME280;52962;51.088;3.096;2024-02-26T05:47:49;99417.34;;;18.33;73.13
66164;BME280;52962;51.088;3.096;2024-02-26T05:50:19;99430.91;;;18.51;71.37
66164;BME280;52962;51.088;3.096;2024-02-26T05:52:47;99430.81;;;18.28;71.25
66164;BME280;52962;51.088;3.096;2024-02-26T05:55:15;99431.50;;;18.07;72.20
66164;BME280;52962;51.088;3.096;2024-02-26T05:57:43;99443.00;;;19.59;64.81
66164;BME280;52962;51.088;3.096;2024-02-26T06:00:12;99447.22;;;19.17;65.14
66164;BME280;52962;51.088;3.096;2024-02-26T06:02:41;99458.94;;;19.13;65.37
66164;BME280;52962;51.088;3.096;2024-02-26T06:05:09;99459.50;;;18.98;65.36
66164;BME280;52962;51.088;3.096;2024-02-26T06:07:39;99470.59;;;18.85;66.38
66164;BME280;52962;51.088;3.096;2024-02-26T06:10:07;99485.06;;;18.25;68.79
66164;BME280;52962;51.088;3.096;2024-02-26T06:12:35;99483.63;;;18.15;70.44
66164;BME280;52962;51.088;3.096;2024-02-26T06:15:04;99489.69;;;18.20;71.09
66164;BME280;52962;51.088;3.096;2024-02-26T06:17:32;99479.91;;;23.05;54.63
66164;BME280;52962;51.088;3.096;2024-02-26T06:20:01;99477.50;;;25.35;43.26
66164;BME280;52962;51.088;3.096;2024-02-26T06:22:31;99492.97;;;25.17;41.50
66164;BME280;52962;51.088;3.096;2024-02-26T06:25:00;99493.28;;;24.97;41.32
66164;BME280;52962;51.088;3.096;2024-02-26T06:27:28;99503.94;;;25.28;40.40
66164;BME280;52962;51.088;3.096;2024-02-26T06:29:57;99510.88;;;25.32;39.67
66164;BME280;52962;51.088;3.096;2024-02-26T06:32:25;99510.56;;;25.67;38.73
66164;BME280;52962;51.088;3.096;2024-02-26T06:34:54;99512.81;;;25.30;38.71
66164;BME280;52962;51.088;3.096;2024-02-26T06:37:23;99520.72;;;25.48;38.84
66164;BME280;52962;51.088;3.096;2024-02-26T06:39:52;99536.47;;;25.25;38.52
66164;BME280;52962;51.088;3.096;2024-02-26T06:42:21;99538.53;;;25.50;38.29
66164;BME280;52962;51.088;3.096;2024-02-26T06:44:49;99537.66;;;26.21;37.27
66164;BME280;52962;51.088;3.096;2024-02-26T06:47:17;99540.53;;;26.18;36.90
66164;BME280;52962;51.088;3.096;2024-02-26T06:49:46;99552.84;;;25.95;36.25
66164;BME280;52962;51.088;3.096;2024-02-26T06:52:16;99541.66;;;25.28;37.33
66164;BME280;52962;51.088;3.096;2024-02-26T06:54:44;99542.16;;;25.79;36.77
66164;BME280;52962;51.088;3.096;2024-02-26T06:57:14;99547.16;;;25.85;36.51
66164;BME280;52962;51.088;3.096;2024-02-26T06:59:43;99548.84;;;26.00;36.25
66164;BME280;52962;51.088;3.096;2024-02-26T07:02:14;99554.09;;;26.30;35.99
66164;BME280;52962;51.088;3.096;2024-02-26T07:04:42;99550.66;;;26.43;35.04
66164;BME280;52962;51.088;3.096;2024-02-26T07:07:11;99558.47;;;26.33;35.14
66164;BME280;52962;51.088;3.096;2024-02-26T07:09:42;99574.75;;;26.17;35.62
66164;BME280;52962;51.088;3.096;2024-02-26T07:12:10;99571.03;;;25.91;35.70
66164;BME280;52962;51.088;3.096;2024-02-26T07:14:38;99576.97;;;26.11;35.49
66164;BME280;52962;51.088;3.096;2024-02-26T07:17:08;99586.50;;;26.16;34.96
66164;BME280;52962;51.088;3.096;2024-02-26T07:19:36;99590.31;;;25.85;35.28
66164;BME280;52962;51.088;3.096;2024-02-26T07:22:04;99602.41;;;26.06;35.18
66164;BME280;52962;51.088;3.096;2024-02-26T07:24:32;99611.94;;;25.69;35.48
66164;BME280;52962;51.088;3.096;2024-02-26T07:27:00;99601.38;;;25.95;35.27
66164;BME280;52962;51.088;3.096;2024-02-26T07:29:28;99611.50;;;25.91;34.85
66164;BME280;52962;51.088;3.096;2024-02-26T07:31:56;99627.50;;;25.94;35.06
66164;BME280;52962;51.088;3.096;2024-02-26T07:34:26;99618.97;;;26.00;35.12
66164;BME280;52962;51.088;3.096;2024-02-26T07:36:56;99630.22;;;25.64;35.66
66164;BME280;52962;51.088;3.096;2024-02-26T07:39:25;99632.47;;;25.72;35.49
66164;BME280;52962;51.088;3.096;2024-02-26T07:41:53;99651.63;;;25.52;35.26
66164;BME280;52962;51.088;3.096;2024-02-26T07:44:21;99651.63;;;25.67;35.38
66164;BME280;52962;51.088;3.096;2024-02-26T07:46:49;99654.78;;;25.44;35.50
66164;BME280;52962;51.088;3.096;2024-02-26T07:49:18;99653.63;;;25.18;35.80
66164;BME280;52962;51.088;3.096;2024-02-26T07:51:48;99662.59;;;25.19;35.67
66164;BME280;52962;51.088;3.096;2024-02-26T07:54:16;99663.38;;;25.51;35.57
66164;BME280;52962;51.088;3.096;2024-02-26T07:56:46;99666.47;;;25.29;35.35
66164;BME280;52962;51.088;3.096;2024-02-26T07:59:14;99685.50;;;25.26;35.53
66164;BME280;52962;51.088;3.096;2024-02-26T08:01:42;99683.97;;;25.67;35.33
66164;BME280;52962;51.088;3.096;2024-02-26T08:04:16;99693.88;;;25.67;34.90
66164;BME280;52962;51.088;3.096;2024-02-26T08:06:45;99700.75;;;24.13;37.12
66164;BME280;52962;51.088;3.096;2024-02-26T08:09:14;99697.09;;;24.81;37.11
66164;BME280;52962;51.088;3.096;2024-02-26T08:11:42;99711.34;;;24.98;36.10
66164;BME280;52962;51.088;3.096;2024-02-26T08:14:11;99703.75;;;24.25;37.32
66164;BME280;52962;51.088;3.096;2024-02-26T08:16:39;99700.91;;;24.10;37.22
66164;BME280;52962;51.088;3.096;2024-02-26T08:19:07;99722.91;;;24.36;36.85
66164;BME280;52962;51.088;3.096;2024-02-26T08:21:37;99718.63;;;24.65;36.54
66164;BME280;52962;51.088;3.096;2024-02-26T08:24:06;99719.66;;;24.62;36.83
66164;BME280;52962;51.088;3.096;2024-02-26T08:26:35;99733.19;;;24.28;36.68
66164;BME280;52962;51.088;3.096;2024-02-26T08:29:04;99739.19;;;24.33;36.91
66164;BME280;52962;51.088;3.096;2024-02-26T08:31:32;99747.69;;;24.58;36.96
66164;BME280;52962;51.088;3.096;2024-02-26T08:34:03;99749.06;;;24.50;36.83
66164;BME280;52962;51.088;3.096;2024-02-26T08:36:33;99753.53;;;24.33;37.01
66164;BME280;52962;51.088;3.096;2024-02-26T08:39:02;99768.50;;;24.88;36.51
66164;BME280;52962;51.088;3.096;2024-02-26T08:41:31;99779.34;;;23.86;37.55
66164;BME280;52962;51.088;3.096;2024-02-26T08:44:01;99773.88;;;23.87;38.14
66164;BME280;52962;51.088;3.096;2024-02-26T08:46:29;99772.75;;;23.38;38.23
66164;BME280;52962;51.088;3.096;2024-02-26T08:48:57;99784.56;;;23.89;38.00
66164;BME280;52962;51.088;3.096;2024-02-26T08:51:27;99779.19;;;23.89;37.56
66164;BME280;52962;51.088;3.096;2024-02-26T08:53:55;99783.66;;;23.71;37.65
66164;BME280;52962;51.088;3.096;2024-02-26T08:56:23;99794.44;;;23.88;37.55
66164;BME280;52962;51.088;3.096;2024-02-26T08:58:51;99800.44;;;24.10;37.18
66164;BME280;52962;51.088;3.096;2024-02-26T09:01:22;99789.28;;;23.84;37.51
66164;BME280;52962;51.088;3.096;2024-02-26T09:03:50;99796.78;;;23.60;37.79
66164;BME280;52962;51.088;3.096;2024-02-26T09:06:19;99811.66;;;24.01;37.46
66164;BME280;52962;51.088;3.096;2024-02-26T09:08:47;99811.34;;;23.73;37.49
66164;BME280;52962;51.088;3.096;2024-02-26T09:11:15;99812.13;;;23.92;37.67
66164;BME280;52962;51.088;3.096;2024-02-26T09:13:43;99816.81;;;23.89;37.51
66164;BME280;52962;51.088;3.096;2024-02-26T09:16:11;99836.47;;;23.72;37.75
66164;BME280;52962;51.088;3.096;2024-02-26T09:18:42;99827.88;;;24.00;37.70
66164;BME280;52962;51.088;3.096;2024-02-26T09:21:10;99838.09;;;23.57;37.84
66164;BME280;52962;51.088;3.096;2024-02-26T09:23:38;99832.50;;;23.43;38.60
66164;BME280;52962;51.088;3.096;2024-02-26T09:26:07;99841.38;;;23.64;38.25
66164;BME280;52962;51.088;3.096;2024-02-26T09:28:36;99842.81;;;23.33;39.52
66164;BME280;52962;51.088;3.096;2024-02-26T09:31:05;99846.59;;;23.29;38.98
66164;BME280;52962;51.088;3.096;2024-02-26T09:33:34;99848.69;;;23.23;39.01
66164;BME280;52962;51.088;3.096;2024-02-26T09:36:04;99868.53;;;23.58;38.65
66164;BME280;52962;51.088;3.096;2024-02-26T09:38:33;99862.56;;;23.32;38.82
66164;BME280;52962;51.088;3.096;2024-02-26T09:41:22;99869.88;;;23.47;38.44
66164;BME280;52962;51.088;3.096;2024-02-26T09:43:52;99876.75;;;23.55;38.86
66164;BME280;52962;51.088;3.096;2024-02-26T09:46:24;99875.47;;;23.43;39.10
66164;BME280;52962;51.088;3.096;2024-02-26T09:48:53;99880.84;;;23.24;39.25
66164;BME280;52962;51.088;3.096;2024-02-26T09:51:24;99889.84;;;23.23;39.10
66164;BME280;52962;51.088;3.096;2024-02-26T09:53:54;99900.19;;;22.93;39.85
66164;BME280;52962;51.088;3.096;2024-02-26T09:56:24;99889.97;;;22.82;40.15
66164;BME280;52962;51.088;3.096;2024-02-26T09:58:52;99898.00;;;23.40;39.28
66164;BME280;52962;51.088;3.096;2024-02-26T10:01:22;99904.28;;;23.60;39.14
66164;BME280;52962;51.088;3.096;2024-02-26T10:03:55;99906.00;;;23.61;38.72
66164;BME280;52962;51.088;3.096;2024-02-26T10:06:26;99910.94;;;23.70;38.62
66164;BME280;52962;51.088;3.096;2024-02-26T10:08:54;99915.16;;;23.57;37.96
66164;BME280;52962;51.088;3.096;2024-02-26T10:11:22;99919.72;;;23.73;38.37
66164;BME280;52962;51.088;3.096;2024-02-26T10:13:51;99920.31;;;23.80;38.30
66164;BME280;52962;51.088;3.096;2024-02-26T10:16:20;99934.81;;;24.31;38.08
66164;BME280;52962;51.088;3.096;2024-02-26T10:18:48;99929.22;;;24.17;37.72
66164;BME280;52962;51.088;3.096;2024-02-26T10:21:25;99938.94;;;24.38;37.71
66164;BME280;52962;51.088;3.096;2024-02-26T10:23:53;99938.09;;;24.19;37.41
66164;BME280;52962;51.088;3.096;2024-02-26T10:26:22;99940.94;;;24.16;37.86
66164;BME280;52962;51.088;3.096;2024-02-26T10:28:50;99966.53;;;23.30;39.21
66164;BME280;52962;51.088;3.096;2024-02-26T10:31:21;99953.38;;;23.24;39.34
66164;BME280;52962;51.088;3.096;2024-02-26T10:33:49;99970.03;;;24.07;38.42
66164;BME280;52962;51.088;3.096;2024-02-26T10:36:18;99979.00;;;24.25;37.64
66164;BME280;52962;51.088;3.096;2024-02-26T10:38:49;99983.50;;;24.25;37.66
66164;BME280;52962;51.088;3.096;2024-02-26T10:41:22;99979.94;;;24.24;37.61
66164;BME280;52962;51.088;3.096;2024-02-26T10:43:50;99981.03;;;24.39;37.45
66164;BME280;52962;51.088;3.096;2024-02-26T10:46:19;99988.00;;;24.43;37.52
66164;BME280;52962;51.088;3.096;2024-02-26T10:48:50;99990.66;;;24.26;37.57
66164;BME280;52962;51.088;3.096;2024-02-26T10:51:22;99992.25;;;24.11;37.83
66164;BME280;52962;51.088;3.096;2024-02-26T10:53:57;100000.88;;;25.07;36.85
66164;BME280;52962;51.088;3.096;2024-02-26T10:56:29;100002.69;;;24.55;37.06
66164;BME280;52962;51.088;3.096;2024-02-26T10:58:58;100010.50;;;24.42;37.19
66164;BME280;52962;51.088;3.096;2024-02-26T11:01:27;100009.56;;;24.05;37.86
66164;BME280;52962;51.088;3.096;2024-02-26T11:04:01;100020.50;;;24.74;37.01
66164;BME280;52962;51.088;3.096;2024-02-26T11:06:30;100020.03;;;24.84;36.71
66164;BME280;52962;51.088;3.096;2024-02-26T11:09:02;100024.78;;;24.61;36.85
66164;BME280;52962;51.088;3.096;2024-02-26T11:11:35;100021.34;;;24.40;37.12
66164;BME280;52962;51.088;3.096;2024-02-26T11:14:04;100026.44;;;24.09;37.68
66164;BME280;52962;51.088;3.096;2024-02-26T11:16:35;100035.06;;;24.16;38.10
66164;BME280;52962;51.088;3.096;2024-02-26T11:19:03;100040.97;;;24.05;38.04
66164;BME280;52962;51.088;3.096;2024-02-26T11:21:32;100033.63;;;24.08;38.02
66164;BME280;52962;51.088;3.096;2024-02-26T11:24:07;100040.59;;;23.94;38.34
66164;BME280;52962;51.088;3.096;2024-02-26T11:26:39;100052.31;;;23.93;38.30
66164;BME280;52962;51.088;3.096;2024-02-26T11:29:09;100043.00;;;24.19;38.11
66164;BME280;52962;51.088;3.096;2024-02-26T11:31:38;100044.47;;;24.26;38.09
66164;BME280;52962;51.088;3.096;2024-02-26T11:34:08;100053.09;;;24.51;37.89
66164;BME280;52962;51.088;3.096;2024-02-26T11:36:37;100054.19;;;24.47;37.79
66164;BME280;52962;51.088;3.096;2024-02-26T11:39:07;100055.34;;;24.23;38.15
66164;BME280;52962;51.088;3.096;2024-02-26T11:41:36;100060.00;;;24.00;38.22
66164;BME280;52962;51.088;3.096;2024-02-26T11:44:04;100073.25;;;24.24;37.97
66164;BME280;52962;51.088;3.096;2024-02-26T11:46:39;100066.41;;;24.17;38.27
66164;BME280;52962;51.088;3.096;2024-02-26T11:49:32;100068.09;;;24.19;37.69
66164;BME280;52962;51.088;3.096;2024-02-26T11:52:05;100072.63;;;24.37;37.93
66164;BME280;52962;51.088;3.096;2024-02-26T11:54:46;100077.47;;;24.10;37.96
66164;BME280;52962;51.088;3.096;2024-02-26T11:57:25;100075.88;;;24.06;37.79
66164;BME280;52962;51.088;3.096;2024-02-26T11:59:55;100078.63;;;24.24;37.90
66164;BME280;52962;51.088;3.096;2024-02-26T12:02:41;100083.38;;;24.37;37.75
66164;BME280;52962;51.088;3.096;2024-02-26T12:05:11;100085.19;;;24.37;38.04
66164;BME280;52962;51.088;3.096;2024-02-26T12:07:43;100081.19;;;24.27;38.36
66164;BME280;52962;51.088;3.096;2024-02-26T12:10:27;100093.44;;;24.13;38.36
66164;BME280;52962;51.088;3.096;2024-02-26T12:13:00;100101.41;;;24.35;37.79
66164;BME280;52962;51.088;3.096;2024-02-26T12:15:32;100103.78;;;24.23;37.64
66164;BME280;52962;51.088;3.096;2024-02-26T12:18:03;100110.75;;;24.64;38.22
66164;BME280;52962;51.088;3.096;2024-02-26T12:20:31;100107.00;;;24.31;38.11
66164;BME280;52962;51.088;3.096;2024-02-26T12:23:00;100115.16;;;24.29;38.03
66164;BME280;52962;51.088;3.096;2024-02-26T12:25:31;100117.19;;;24.43;37.81
66164;BME280;52962;51.088;3.096;2024-02-26T12:28:00;100106.06;;;24.32;37.80
66164;BME280;52962;51.088;3.096;2024-02-26T12:30:27;100120.69;;;24.45;37.90
66164;BME280;52962;51.088;3.096;2024-02-26T12:33:00;100132.28;;;24.83;37.35
66164;BME280;52962;51.088;3.096;2024-02-26T12:35:29;100129.00;;;25.13;36.90
66164;BME280;52962;51.088;3.096;2024-02-26T12:37:59;100138.50;;;25.37;36.47
66164;BME280;52962;51.088;3.096;2024-02-26T12:40:27;100140.78;;;25.96;35.80
66164;BME280;52962;51.088;3.096;2024-02-26T12:42:57;100142.72;;;25.42;35.83
66164;BME280;52962;51.088;3.096;2024-02-26T12:45:26;100146.19;;;25.27;35.95
66164;BME280;52962;51.088;3.096;2024-02-26T12:47:55;100163.47;;;25.40;36.02
66164;BME280;52962;51.088;3.096;2024-02-26T12:50:24;100176.31;;;25.18;36.29
66164;BME280;52962;51.088;3.096;2024-02-26T12:52:53;100172.19;;;25.28;36.03
66164;BME280;52962;51.088;3.096;2024-02-26T12:55:21;100176.19;;;24.48;37.52
66164;BME280;52962;51.088;3.096;2024-02-26T12:57:50;100173.47;;;24.29;37.73
66164;BME280;52962;51.088;3.096;2024-02-26T13:00:22;100186.38;;;24.21;40.78
66164;BME280;52962;51.088;3.096;2024-02-26T13:02:53;100184.97;;;24.70;38.34
66164;BME280;52962;51.088;3.096;2024-02-26T13:05:23;100188.09;;;24.80;37.54
66164;BME280;52962;51.088;3.096;2024-02-26T13:07:51;100193.53;;;24.97;37.30